Stanchfield, Minnesota
Current Conditions -  °F | °C
As of 12:55 PM on Saturday 25 Oct 2014 (Local Time) from KCBG Reporting Station
Clear Clear  
Wind Chill: 63°   Ceiling: Unl
Heat Index: 63°   Visibility: 10mi
Dew Point: 39°   Wind: 17mph
Humidity: 42%   Direction: 290°WNW
Pressure: 30"   Gusts: 21mph
Location:  45.67°N, 93.18°W
Report Text: KCBG 251755Z AUTO 29015G18KT 10SM CLR 17/04 A3000 RMK AO2
Loading
Personal Weather Stations






























Interactive Weather Map
Tropical Storm Tracking
New forecast layout! Learn more

10-Day Weather Forecast

Advertisements
Track Severe Weather on mobile